This is the latest recevied weather packets stored in our database for station/object OE6ACM-14. If no packets are shown the sender has not sent any weather packets the latest 1 day(s).
| Time | Temp. | Humidity | Pressure | Rain* | Wind** | Luminosity | Snow |
|---|---|---|---|---|---|---|---|
| 1778058001 | 26.11° C | 28% | 920 hPa | - | - | - | - |
| 1778057701 | 23.89° C | 30% | 919.9 hPa | - | - | - | - |
| 1778057401 | 22.78° C | 32% | 920.1 hPa | - | - | - | - |
| 1778056801 | 27.22° C | 26% | 919.9 hPa | - | - | - | - |
| 1778056501 | 28.89° C | 24% | 919.9 hPa | - | - | - | - |
| 1778056201 | 28.33° C | 24% | 920 hPa | - | - | - | - |
| 1778055901 | 31.11° C | 21% | 919.9 hPa | - | - | - | - |
| 1778055301 | 30.56° C | 22% | 919.9 hPa | - | - | - | - |
| 1778055001 | 29.44° C | 21% | 919.9 hPa | - | - | - | - |
| 1778054701 | 30.56° C | 21% | 920 hPa | - | - | - | - |
| 1778054401 | 30° C | 21% | 920.1 hPa | - | - | - | - |
| 1778054101 | 31.67° C | 20% | 920 hPa | - | - | - | - |
| 1778053801 | 30° C | 22% | 920.1 hPa | - | - | - | - |
| 1778053501 | 27.78° C | 24% | 920.1 hPa | - | - | - | - |
| 1778052901 | 30° C | 23% | 920.1 hPa | - | - | - | - |
| 1778052601 | 30.56° C | 23% | 920.2 hPa | - | - | - | - |
| 1778052301 | 27.78° C | 23% | 920.3 hPa | - | - | - | - |
| 1778052001 | 28.89° C | 24% | 920.2 hPa | - | - | - | - |
| 1778051701 | 27.78° C | 26% | 920.4 hPa | - | - | - | - |
| 1778051401 | 26.11° C | 28% | 920.4 hPa | - | - | - | - |
| 1778051101 | 28.33° C | 28% | 920.4 hPa | - | - | - | - |
| 1778050501 | 22.22° C | 35% | 920.6 hPa | - | - | - | - |
| 1778050201 | 23.89° C | 32% | 920.6 hPa | - | - | - | - |
| 1778049901 | 23.89° C | 31% | 920.7 hPa | - | - | - | - |
| 1778049601 | 23.33° C | 32% | 920.7 hPa | - | - | - | - |
* Rain since midnight (hover to see other rain measurements)
** Current wind speed in m/s (hover to see current wind gust speed)